sensor_id;sensor_type;location;lat;lon;timestamp;temperature;humidity
46816;DHT22;32787;53.316;8.670;2022-08-19T00:01:20;17.80;87.00
46816;DHT22;32787;53.316;8.670;2022-08-19T00:03:46;17.80;86.90
46816;DHT22;32787;53.316;8.670;2022-08-19T00:06:12;17.80;87.30
46816;DHT22;32787;53.316;8.670;2022-08-19T00:08:37;17.70;87.50
46816;DHT22;32787;53.316;8.670;2022-08-19T00:11:03;17.60;87.70
46816;DHT22;32787;53.316;8.670;2022-08-19T00:13:29;17.60;87.90
46816;DHT22;32787;53.316;8.670;2022-08-19T00:15:55;17.60;88.00
46816;DHT22;32787;53.316;8.670;2022-08-19T00:18:21;17.60;88.10
46816;DHT22;32787;53.316;8.670;2022-08-19T00:20:47;17.50;88.10
46816;DHT22;32787;53.316;8.670;2022-08-19T00:23:13;17.60;88.10
46816;DHT22;32787;53.316;8.670;2022-08-19T00:25:38;17.60;88.00
46816;DHT22;32787;53.316;8.670;2022-08-19T00:28:04;17.60;87.90
46816;DHT22;32787;53.316;8.670;2022-08-19T00:30:30;17.50;87.90
46816;DHT22;32787;53.316;8.670;2022-08-19T00:32:56;17.50;88.00
46816;DHT22;32787;53.316;8.670;2022-08-19T00:35:22;17.50;87.90
46816;DHT22;32787;53.316;8.670;2022-08-19T00:37:49;17.50;88.10
46816;DHT22;32787;53.316;8.670;2022-08-19T00:40:17;17.50;88.00
46816;DHT22;32787;53.316;8.670;2022-08-19T00:42:43;17.60;88.10
46816;DHT22;32787;53.316;8.670;2022-08-19T00:45:15;17.50;88.10
46816;DHT22;32787;53.316;8.670;2022-08-19T00:47:42;17.60;87.90
46816;DHT22;32787;53.316;8.670;2022-08-19T00:50:10;17.60;87.80
46816;DHT22;32787;53.316;8.670;2022-08-19T00:52:40;17.60;87.60
46816;DHT22;32787;53.316;8.670;2022-08-19T00:55:15;17.60;87.80
46816;DHT22;32787;53.316;8.670;2022-08-19T00:57:47;17.70;87.70
46816;DHT22;32787;53.316;8.670;2022-08-19T01:00:14;17.80;87.40
46816;DHT22;32787;53.316;8.670;2022-08-19T01:02:42;17.80;87.20
46816;DHT22;32787;53.316;8.670;2022-08-19T01:05:11;17.80;87.00
46816;DHT22;32787;53.316;8.670;2022-08-19T01:07:39;17.90;86.90
46816;DHT22;32787;53.316;8.670;2022-08-19T01:10:08;18.00;87.00
46816;DHT22;32787;53.316;8.670;2022-08-19T01:12:34;17.90;87.20
46816;DHT22;32787;53.316;8.670;2022-08-19T01:15:00;17.90;87.20
46816;DHT22;32787;53.316;8.670;2022-08-19T01:17:27;17.80;87.00
46816;DHT22;32787;53.316;8.670;2022-08-19T01:19:53;17.80;87.20
46816;DHT22;32787;53.316;8.670;2022-08-19T01:22:27;17.80;87.60
46816;DHT22;32787;53.316;8.670;2022-08-19T01:24:53;17.70;87.70
46816;DHT22;32787;53.316;8.670;2022-08-19T01:27:18;17.70;87.90
46816;DHT22;32787;53.316;8.670;2022-08-19T01:29:45;17.70;88.00
46816;DHT22;32787;53.316;8.670;2022-08-19T01:32:13;17.70;88.00
46816;DHT22;32787;53.316;8.670;2022-08-19T01:34:40;17.70;88.00
46816;DHT22;32787;53.316;8.670;2022-08-19T01:37:11;17.70;88.00
46816;DHT22;32787;53.316;8.670;2022-08-19T01:39:38;17.80;87.80
46816;DHT22;32787;53.316;8.670;2022-08-19T01:42:05;17.70;87.80
46816;DHT22;32787;53.316;8.670;2022-08-19T01:44:32;17.60;87.90
46816;DHT22;32787;53.316;8.670;2022-08-19T01:46:58;17.70;88.10
46816;DHT22;32787;53.316;8.670;2022-08-19T01:49:25;17.70;87.80
46816;DHT22;32787;53.316;8.670;2022-08-19T01:51:52;17.80;87.80
46816;DHT22;32787;53.316;8.670;2022-08-19T01:54:22;17.80;87.70
46816;DHT22;32787;53.316;8.670;2022-08-19T01:56:49;17.80;87.80
46816;DHT22;32787;53.316;8.670;2022-08-19T01:59:19;17.80;87.70
46816;DHT22;32787;53.316;8.670;2022-08-19T02:01:44;17.80;87.70
46816;DHT22;32787;53.316;8.670;2022-08-19T02:04:10;17.70;87.60
46816;DHT22;32787;53.316;8.670;2022-08-19T02:06:36;17.70;87.80
46816;DHT22;32787;53.316;8.670;2022-08-19T02:09:06;17.80;87.90
46816;DHT22;32787;53.316;8.670;2022-08-19T02:11:33;17.70;87.80
46816;DHT22;32787;53.316;8.670;2022-08-19T02:14:03;17.60;88.00
46816;DHT22;32787;53.316;8.670;2022-08-19T02:16:29;17.70;88.10
46816;DHT22;32787;53.316;8.670;2022-08-19T02:18:55;17.70;87.80
46816;DHT22;32787;53.316;8.670;2022-08-19T02:21:22;17.60;88.00
46816;DHT22;32787;53.316;8.670;2022-08-19T02:23:49;17.60;88.20
46816;DHT22;32787;53.316;8.670;2022-08-19T02:26:16;17.70;88.20
46816;DHT22;32787;53.316;8.670;2022-08-19T02:28:42;17.70;87.80
46816;DHT22;32787;53.316;8.670;2022-08-19T02:31:13;17.70;87.70
46816;DHT22;32787;53.316;8.670;2022-08-19T02:33:40;17.70;87.70
46816;DHT22;32787;53.316;8.670;2022-08-19T02:36:07;17.80;87.70
46816;DHT22;32787;53.316;8.670;2022-08-19T02:38:33;17.80;87.60
46816;DHT22;32787;53.316;8.670;2022-08-19T02:41:04;17.80;87.60
46816;DHT22;32787;53.316;8.670;2022-08-19T02:43:31;17.80;87.70
46816;DHT22;32787;53.316;8.670;2022-08-19T02:45:57;17.70;87.80
46816;DHT22;32787;53.316;8.670;2022-08-19T02:48:24;17.70;88.00
46816;DHT22;32787;53.316;8.670;2022-08-19T02:50:52;17.90;87.60
46816;DHT22;32787;53.316;8.670;2022-08-19T02:53:27;17.80;87.30
46816;DHT22;32787;53.316;8.670;2022-08-19T02:55:53;17.80;87.60
46816;DHT22;32787;53.316;8.670;2022-08-19T02:58:19;17.80;87.80
46816;DHT22;32787;53.316;8.670;2022-08-19T03:00:48;17.80;87.70
46816;DHT22;32787;53.316;8.670;2022-08-19T03:03:15;17.70;87.80
46816;DHT22;32787;53.316;8.670;2022-08-19T03:05:42;17.80;87.90
46816;DHT22;32787;53.316;8.670;2022-08-19T03:08:09;17.70;87.80
46816;DHT22;32787;53.316;8.670;2022-08-19T03:10:46;17.70;87.50
46816;DHT22;32787;53.316;8.670;2022-08-19T03:13:14;17.70;87.40
46816;DHT22;32787;53.316;8.670;2022-08-19T03:15:44;17.70;87.20
46816;DHT22;32787;53.316;8.670;2022-08-19T03:18:11;17.70;86.50
46816;DHT22;32787;53.316;8.670;2022-08-19T03:20:48;17.80;86.70
46816;DHT22;32787;53.316;8.670;2022-08-19T03:23:14;17.80;86.50
46816;DHT22;32787;53.316;8.670;2022-08-19T03:25:46;17.80;85.90
46816;DHT22;32787;53.316;8.670;2022-08-19T03:28:13;17.80;86.20
46816;DHT22;32787;53.316;8.670;2022-08-19T03:30:41;17.80;86.20
46816;DHT22;32787;53.316;8.670;2022-08-19T03:33:08;17.80;86.10
46816;DHT22;32787;53.316;8.670;2022-08-19T03:35:34;17.80;85.70
46816;DHT22;32787;53.316;8.670;2022-08-19T03:38:06;17.80;85.90
46816;DHT22;32787;53.316;8.670;2022-08-19T03:40:36;17.80;85.90
46816;DHT22;32787;53.316;8.670;2022-08-19T03:43:02;17.80;85.80
46816;DHT22;32787;53.316;8.670;2022-08-19T03:45:28;17.80;86.00
46816;DHT22;32787;53.316;8.670;2022-08-19T03:47:55;17.80;85.70
46816;DHT22;32787;53.316;8.670;2022-08-19T03:50:20;17.80;85.40
46816;DHT22;32787;53.316;8.670;2022-08-19T03:52:50;17.90;85.00
46816;DHT22;32787;53.316;8.670;2022-08-19T03:55:17;17.90;84.70
46816;DHT22;32787;53.316;8.670;2022-08-19T03:57:43;17.80;85.20
46816;DHT22;32787;53.316;8.670;2022-08-19T04:00:11;17.80;85.30
46816;DHT22;32787;53.316;8.670;2022-08-19T04:02:37;17.70;85.50
46816;DHT22;32787;53.316;8.670;2022-08-19T04:05:03;17.70;85.30
46816;DHT22;32787;53.316;8.670;2022-08-19T04:07:29;17.60;85.30
46816;DHT22;32787;53.316;8.670;2022-08-19T04:09:54;17.70;85.40
46816;DHT22;32787;53.316;8.670;2022-08-19T04:12:20;17.50;85.30
46816;DHT22;32787;53.316;8.670;2022-08-19T04:14:46;17.50;85.60
46816;DHT22;32787;53.316;8.670;2022-08-19T04:17:12;17.50;85.40
46816;DHT22;32787;53.316;8.670;2022-08-19T04:19:39;17.40;85.50
46816;DHT22;32787;53.316;8.670;2022-08-19T04:22:05;17.40;85.60
46816;DHT22;32787;53.316;8.670;2022-08-19T04:24:33;17.40;85.80
46816;DHT22;32787;53.316;8.670;2022-08-19T04:27:02;17.30;85.80
46816;DHT22;32787;53.316;8.670;2022-08-19T04:29:28;17.30;86.00
46816;DHT22;32787;53.316;8.670;2022-08-19T04:31:55;17.10;86.30
46816;DHT22;32787;53.316;8.670;2022-08-19T04:34:23;17.20;86.60
46816;DHT22;32787;53.316;8.670;2022-08-19T04:36:51;17.00;86.60
46816;DHT22;32787;53.316;8.670;2022-08-19T04:39:23;16.80;87.10
46816;DHT22;32787;53.316;8.670;2022-08-19T04:42:09;16.80;87.30
46816;DHT22;32787;53.316;8.670;2022-08-19T04:44:53;16.80;87.00
46816;DHT22;32787;53.316;8.670;2022-08-19T04:47:19;16.90;86.90
46816;DHT22;32787;53.316;8.670;2022-08-19T04:49:45;16.80;87.10
46816;DHT22;32787;53.316;8.670;2022-08-19T04:52:10;16.80;87.00
46816;DHT22;32787;53.316;8.670;2022-08-19T04:54:36;16.80;87.10
46816;DHT22;32787;53.316;8.670;2022-08-19T04:57:01;16.80;87.20
46816;DHT22;32787;53.316;8.670;2022-08-19T04:59:27;16.90;87.10
46816;DHT22;32787;53.316;8.670;2022-08-19T05:01:53;17.00;87.00
46816;DHT22;32787;53.316;8.670;2022-08-19T05:04:20;17.00;87.00
46816;DHT22;32787;53.316;8.670;2022-08-19T05:06:47;17.00;87.20
46816;DHT22;32787;53.316;8.670;2022-08-19T05:09:14;17.10;87.00
46816;DHT22;32787;53.316;8.670;2022-08-19T05:11:40;17.00;86.90
46816;DHT22;32787;53.316;8.670;2022-08-19T05:14:07;17.00;87.00
46816;DHT22;32787;53.316;8.670;2022-08-19T05:16:34;16.90;87.20
46816;DHT22;32787;53.316;8.670;2022-08-19T05:18:59;16.90;87.30
46816;DHT22;32787;53.316;8.670;2022-08-19T05:21:44;16.90;87.00
46816;DHT22;32787;53.316;8.670;2022-08-19T05:24:30;16.80;87.30
46816;DHT22;32787;53.316;8.670;2022-08-19T05:26:56;16.80;87.40
46816;DHT22;32787;53.316;8.670;2022-08-19T05:29:24;16.80;87.30
46816;DHT22;32787;53.316;8.670;2022-08-19T05:31:51;16.80;87.20
46816;DHT22;32787;53.316;8.670;2022-08-19T05:34:18;16.90;87.00
46816;DHT22;32787;53.316;8.670;2022-08-19T05:36:46;16.90;87.20
46816;DHT22;32787;53.316;8.670;2022-08-19T05:39:18;17.00;86.90
46816;DHT22;32787;53.316;8.670;2022-08-19T05:41:46;17.00;86.80
46816;DHT22;32787;53.316;8.670;2022-08-19T05:44:13;16.90;86.90
46816;DHT22;32787;53.316;8.670;2022-08-19T05:46:41;16.90;86.90
46816;DHT22;32787;53.316;8.670;2022-08-19T05:49:08;17.00;86.60
46816;DHT22;32787;53.316;8.670;2022-08-19T05:51:35;17.10;86.60
46816;DHT22;32787;53.316;8.670;2022-08-19T05:54:03;17.10;86.60
46816;DHT22;32787;53.316;8.670;2022-08-19T05:56:30;17.20;86.30
46816;DHT22;32787;53.316;8.670;2022-08-19T05:58:56;17.20;86.40
46816;DHT22;32787;53.316;8.670;2022-08-19T06:01:22;17.40;85.90
46816;DHT22;32787;53.316;8.670;2022-08-19T06:03:47;17.30;86.10
46816;DHT22;32787;53.316;8.670;2022-08-19T06:06:17;17.30;85.90
46816;DHT22;32787;53.316;8.670;2022-08-19T06:08:43;17.30;86.00
46816;DHT22;32787;53.316;8.670;2022-08-19T06:13:53;17.40;85.80
46816;DHT22;32787;53.316;8.670;2022-08-19T06:16:19;17.50;85.60
46816;DHT22;32787;53.316;8.670;2022-08-19T06:18:51;17.50;85.80
46816;DHT22;32787;53.316;8.670;2022-08-19T06:21:21;17.60;85.60
46816;DHT22;32787;53.316;8.670;2022-08-19T06:23:48;17.60;85.50
46816;DHT22;32787;53.316;8.670;2022-08-19T06:26:16;17.70;85.40
46816;DHT22;32787;53.316;8.670;2022-08-19T06:28:42;17.80;85.10
46816;DHT22;32787;53.316;8.670;2022-08-19T06:31:15;17.80;85.10
46816;DHT22;32787;53.316;8.670;2022-08-19T06:33:42;17.70;85.40
46816;DHT22;32787;53.316;8.670;2022-08-19T06:36:17;17.60;85.80
46816;DHT22;32787;53.316;8.670;2022-08-19T06:38:42;17.80;85.80
46816;DHT22;32787;53.316;8.670;2022-08-19T06:41:08;18.00;85.20
46816;DHT22;32787;53.316;8.670;2022-08-19T06:43:35;18.30;84.20
46816;DHT22;32787;53.316;8.670;2022-08-19T06:46:02;18.30;83.90
46816;DHT22;32787;53.316;8.670;2022-08-19T06:48:29;18.50;83.10
46816;DHT22;32787;53.316;8.670;2022-08-19T06:50:55;18.60;82.20
46816;DHT22;32787;53.316;8.670;2022-08-19T06:53:21;18.60;82.10
46816;DHT22;32787;53.316;8.670;2022-08-19T06:55:47;18.60;80.80
46816;DHT22;32787;53.316;8.670;2022-08-19T06:58:12;18.70;81.20
46816;DHT22;32787;53.316;8.670;2022-08-19T07:00:39;18.70;81.40
46816;DHT22;32787;53.316;8.670;2022-08-19T07:03:05;18.70;80.90
46816;DHT22;32787;53.316;8.670;2022-08-19T07:05:30;18.50;81.50
46816;DHT22;32787;53.316;8.670;2022-08-19T07:07:56;18.50;82.30
46816;DHT22;32787;53.316;8.670;2022-08-19T07:10:22;18.70;80.80
46816;DHT22;32787;53.316;8.670;2022-08-19T07:12:48;18.70;81.20
46816;DHT22;32787;53.316;8.670;2022-08-19T07:15:15;18.80;80.40
46816;DHT22;32787;53.316;8.670;2022-08-19T07:17:41;18.80;79.90
46816;DHT22;32787;53.316;8.670;2022-08-19T07:20:09;18.90;79.50
46816;DHT22;32787;53.316;8.670;2022-08-19T07:22:36;18.90;79.40
46816;DHT22;32787;53.316;8.670;2022-08-19T07:25:05;18.70;79.60
46816;DHT22;32787;53.316;8.670;2022-08-19T07:27:31;18.60;80.40
46816;DHT22;32787;53.316;8.670;2022-08-19T07:29:56;18.60;81.00
46816;DHT22;32787;53.316;8.670;2022-08-19T07:32:22;18.90;79.60
46816;DHT22;32787;53.316;8.670;2022-08-19T07:34:48;18.90;77.90
46816;DHT22;32787;53.316;8.670;2022-08-19T07:37:13;18.80;78.50
46816;DHT22;32787;53.316;8.670;2022-08-19T07:39:39;18.80;79.00
46816;DHT22;32787;53.316;8.670;2022-08-19T07:42:08;18.90;78.30
46816;DHT22;32787;53.316;8.670;2022-08-19T07:44:35;19.00;78.20
46816;DHT22;32787;53.316;8.670;2022-08-19T07:47:02;19.10;79.10
46816;DHT22;32787;53.316;8.670;2022-08-19T07:49:28;19.20;77.00
46816;DHT22;32787;53.316;8.670;2022-08-19T07:51:59;19.30;76.10
46816;DHT22;32787;53.316;8.670;2022-08-19T07:54:28;19.20;75.60
46816;DHT22;32787;53.316;8.670;2022-08-19T07:56:54;19.10;76.70
46816;DHT22;32787;53.316;8.670;2022-08-19T07:59:21;19.30;76.70
46816;DHT22;32787;53.316;8.670;2022-08-19T08:01:47;19.20;75.90
46816;DHT22;32787;53.316;8.670;2022-08-19T08:04:16;19.40;76.60
46816;DHT22;32787;53.316;8.670;2022-08-19T08:07:00;19.30;76.50
46816;DHT22;32787;53.316;8.670;2022-08-19T08:09:45;19.40;75.30
46816;DHT22;32787;53.316;8.670;2022-08-19T08:12:15;19.30;74.70
46816;DHT22;32787;53.316;8.670;2022-08-19T08:14:43;19.20;75.50
46816;DHT22;32787;53.316;8.670;2022-08-19T08:17:10;19.50;75.00
46816;DHT22;32787;53.316;8.670;2022-08-19T08:19:36;19.50;74.90
46816;DHT22;32787;53.316;8.670;2022-08-19T08:22:02;19.60;74.90
46816;DHT22;32787;53.316;8.670;2022-08-19T08:24:30;19.70;73.00
46816;DHT22;32787;53.316;8.670;2022-08-19T08:26:58;19.70;74.50
46816;DHT22;32787;53.316;8.670;2022-08-19T08:29:27;19.70;73.10
46816;DHT22;32787;53.316;8.670;2022-08-19T08:31:53;19.50;74.00
46816;DHT22;32787;53.316;8.670;2022-08-19T08:34:19;19.70;74.20
46816;DHT22;32787;53.316;8.670;2022-08-19T08:36:45;19.70;73.50
46816;DHT22;32787;53.316;8.670;2022-08-19T08:39:14;19.80;74.10
46816;DHT22;32787;53.316;8.670;2022-08-19T08:44:06;20.40;73.60
46816;DHT22;32787;53.316;8.670;2022-08-19T08:46:46;20.50;73.10
46816;DHT22;32787;53.316;8.670;2022-08-19T08:49:43;20.30;72.00
46816;DHT22;32787;53.316;8.670;2022-08-19T08:54:50;20.70;71.40
46816;DHT22;32787;53.316;8.670;2022-08-19T08:57:27;20.50;72.10
46816;DHT22;32787;53.316;8.670;2022-08-19T08:59:54;20.80;73.00
46816;DHT22;32787;53.316;8.670;2022-08-19T09:02:22;20.90;70.80
46816;DHT22;32787;53.316;8.670;2022-08-19T09:04:48;20.70;71.30
46816;DHT22;32787;53.316;8.670;2022-08-19T09:10:49;20.80;71.40
46816;DHT22;32787;53.316;8.670;2022-08-19T09:15:38;20.80;70.90
46816;DHT22;32787;53.316;8.670;2022-08-19T09:18:05;21.30;71.20
46816;DHT22;32787;53.316;8.670;2022-08-19T09:20:32;21.50;68.10
46816;DHT22;32787;53.316;8.670;2022-08-19T09:22:57;21.60;67.80
46816;DHT22;32787;53.316;8.670;2022-08-19T09:25:24;21.70;67.90
46816;DHT22;32787;53.316;8.670;2022-08-19T09:27:51;21.80;66.90
46816;DHT22;32787;53.316;8.670;2022-08-19T09:30:24;21.80;67.40
46816;DHT22;32787;53.316;8.670;2022-08-19T09:32:51;21.80;69.00
46816;DHT22;32787;53.316;8.670;2022-08-19T09:35:25;21.40;69.10
46816;DHT22;32787;53.316;8.670;2022-08-19T09:37:52;21.30;68.30
46816;DHT22;32787;53.316;8.670;2022-08-19T09:40:18;21.40;69.00
46816;DHT22;32787;53.316;8.670;2022-08-19T09:42:45;21.50;67.90
46816;DHT22;32787;53.316;8.670;2022-08-19T09:45:16;21.70;68.70
46816;DHT22;32787;53.316;8.670;2022-08-19T09:47:43;21.80;64.80
46816;DHT22;32787;53.316;8.670;2022-08-19T09:50:10;21.70;67.00
46816;DHT22;32787;53.316;8.670;2022-08-19T09:52:41;21.70;68.30
46816;DHT22;32787;53.316;8.670;2022-08-19T09:55:10;21.60;66.90
46816;DHT22;32787;53.316;8.670;2022-08-19T09:57:37;21.50;67.00
46816;DHT22;32787;53.316;8.670;2022-08-19T10:00:07;21.60;68.00
46816;DHT22;32787;53.316;8.670;2022-08-19T10:02:34;21.70;67.20
46816;DHT22;32787;53.316;8.670;2022-08-19T10:05:00;21.60;67.60
46816;DHT22;32787;53.316;8.670;2022-08-19T10:07:44;21.80;65.90
46816;DHT22;32787;53.316;8.670;2022-08-19T10:10:10;21.90;65.20
46816;DHT22;32787;53.316;8.670;2022-08-19T10:12:35;22.30;63.10
46816;DHT22;32787;53.316;8.670;2022-08-19T10:15:02;22.20;63.50
46816;DHT22;32787;53.316;8.670;2022-08-19T10:17:28;22.30;65.40
46816;DHT22;32787;53.316;8.670;2022-08-19T10:19:54;22.30;66.10
46816;DHT22;32787;53.316;8.670;2022-08-19T10:22:20;22.20;64.00
46816;DHT22;32787;53.316;8.670;2022-08-19T10:24:46;22.10;65.70
46816;DHT22;32787;53.316;8.670;2022-08-19T10:27:11;22.30;66.10
46816;DHT22;32787;53.316;8.670;2022-08-19T10:29:39;22.20;63.90
46816;DHT22;32787;53.316;8.670;2022-08-19T10:32:06;22.00;66.00
46816;DHT22;32787;53.316;8.670;2022-08-19T10:34:34;22.40;66.60
46816;DHT22;32787;53.316;8.670;2022-08-19T10:37:02;22.60;66.70
46816;DHT22;32787;53.316;8.670;2022-08-19T10:39:29;22.70;61.80
46816;DHT22;32787;53.316;8.670;2022-08-19T10:41:55;22.80;63.40
46816;DHT22;32787;53.316;8.670;2022-08-19T10:44:23;22.70;63.50
46816;DHT22;32787;53.316;8.670;2022-08-19T10:46:49;22.70;64.60
46816;DHT22;32787;53.316;8.670;2022-08-19T10:49:15;22.70;66.10
46816;DHT22;32787;53.316;8.670;2022-08-19T10:51:41;22.90;63.90
46816;DHT22;32787;53.316;8.670;2022-08-19T10:54:26;22.80;64.40
46816;DHT22;32787;53.316;8.670;2022-08-19T10:57:12;22.60;65.20
46816;DHT22;32787;53.316;8.670;2022-08-19T10:59:38;22.80;66.20
46816;DHT22;32787;53.316;8.670;2022-08-19T11:02:06;23.20;62.30
46816;DHT22;32787;53.316;8.670;2022-08-19T11:04:35;23.20;63.10
46816;DHT22;32787;53.316;8.670;2022-08-19T11:07:01;23.40;62.00
46816;DHT22;32787;53.316;8.670;2022-08-19T11:09:27;23.10;61.20
46816;DHT22;32787;53.316;8.670;2022-08-19T11:11:55;23.30;60.10
46816;DHT22;32787;53.316;8.670;2022-08-19T11:14:23;23.20;59.80
46816;DHT22;32787;53.316;8.670;2022-08-19T11:16:59;23.30;60.90
46816;DHT22;32787;53.316;8.670;2022-08-19T11:19:25;23.50;59.10
46816;DHT22;32787;53.316;8.670;2022-08-19T11:21:52;23.30;60.10
46816;DHT22;32787;53.316;8.670;2022-08-19T11:24:22;23.30;60.00
46816;DHT22;32787;53.316;8.670;2022-08-19T11:26:50;23.40;60.50
46816;DHT22;32787;53.316;8.670;2022-08-19T11:29:18;23.70;57.20
46816;DHT22;32787;53.316;8.670;2022-08-19T11:31:46;23.40;57.90
46816;DHT22;32787;53.316;8.670;2022-08-19T11:34:16;23.50;58.60
46816;DHT22;32787;53.316;8.670;2022-08-19T11:36:44;23.40;59.70
46816;DHT22;32787;53.316;8.670;2022-08-19T11:39:11;23.80;59.10
46816;DHT22;32787;53.316;8.670;2022-08-19T11:41:38;24.00;55.70
46816;DHT22;32787;53.316;8.670;2022-08-19T11:44:04;23.90;57.10
46816;DHT22;32787;53.316;8.670;2022-08-19T11:46:30;23.90;55.40
46816;DHT22;32787;53.316;8.670;2022-08-19T11:48:57;23.90;53.40
46816;DHT22;32787;53.316;8.670;2022-08-19T11:51:25;23.80;56.90
46816;DHT22;32787;53.316;8.670;2022-08-19T11:53:52;24.00;53.90
46816;DHT22;32787;53.316;8.670;2022-08-19T11:56:18;23.80;54.60
46816;DHT22;32787;53.316;8.670;2022-08-19T11:58:44;23.80;55.70
46816;DHT22;32787;53.316;8.670;2022-08-19T12:01:16;24.20;56.10
46816;DHT22;32787;53.316;8.670;2022-08-19T12:03:43;24.10;49.60
46816;DHT22;32787;53.316;8.670;2022-08-19T12:06:12;23.70;50.90
46816;DHT22;32787;53.316;8.670;2022-08-19T12:08:39;23.70;52.30
46816;DHT22;32787;53.316;8.670;2022-08-19T12:11:05;23.60;50.50
46816;DHT22;32787;53.316;8.670;2022-08-19T12:13:34;23.70;49.80
46816;DHT22;32787;53.316;8.670;2022-08-19T12:16:00;23.50;51.90
46816;DHT22;32787;53.316;8.670;2022-08-19T12:18:27;23.40;48.80
46816;DHT22;32787;53.316;8.670;2022-08-19T12:20:53;23.50;49.20
46816;DHT22;32787;53.316;8.670;2022-08-19T12:23:22;23.50;49.20
46816;DHT22;32787;53.316;8.670;2022-08-19T12:25:49;23.80;49.00
46816;DHT22;32787;53.316;8.670;2022-08-19T12:28:19;23.60;47.40
46816;DHT22;32787;53.316;8.670;2022-08-19T12:30:46;23.80;46.50
46816;DHT22;32787;53.316;8.670;2022-08-19T12:33:12;24.10;44.80
46816;DHT22;32787;53.316;8.670;2022-08-19T12:35:43;24.20;45.70
46816;DHT22;32787;53.316;8.670;2022-08-19T12:38:11;24.50;44.80
46816;DHT22;32787;53.316;8.670;2022-08-19T12:40:37;24.70;44.00
46816;DHT22;32787;53.316;8.670;2022-08-19T12:43:05;24.50;44.10
46816;DHT22;32787;53.316;8.670;2022-08-19T12:45:31;24.70;45.10
46816;DHT22;32787;53.316;8.670;2022-08-19T12:47:57;25.20;43.40
46816;DHT22;32787;53.316;8.670;2022-08-19T12:50:22;25.20;43.00
46816;DHT22;32787;53.316;8.670;2022-08-19T12:52:48;25.30;45.30
46816;DHT22;32787;53.316;8.670;2022-08-19T12:55:14;25.00;44.10
46816;DHT22;32787;53.316;8.670;2022-08-19T12:57:40;25.10;45.70
46816;DHT22;32787;53.316;8.670;2022-08-19T13:00:09;25.30;46.50
46816;DHT22;32787;53.316;8.670;2022-08-19T13:02:44;25.50;44.50
46816;DHT22;32787;53.316;8.670;2022-08-19T13:05:16;25.10;44.90
46816;DHT22;32787;53.316;8.670;2022-08-19T13:07:42;25.50;47.20
46816;DHT22;32787;53.316;8.670;2022-08-19T13:10:12;25.50;44.60
46816;DHT22;32787;53.316;8.670;2022-08-19T13:12:38;25.40;43.40
46816;DHT22;32787;53.316;8.670;2022-08-19T13:15:06;26.00;42.40
46816;DHT22;32787;53.316;8.670;2022-08-19T13:17:33;26.20;41.10
46816;DHT22;32787;53.316;8.670;2022-08-19T13:19:59;26.20;39.80
46816;DHT22;32787;53.316;8.670;2022-08-19T13:22:25;26.40;40.50
46816;DHT22;32787;53.316;8.670;2022-08-19T13:24:50;27.90;39.70
46816;DHT22;32787;53.316;8.670;2022-08-19T13:27:16;29.60;35.70
46816;DHT22;32787;53.316;8.670;2022-08-19T13:29:42;30.40;34.40
46816;DHT22;32787;53.316;8.670;2022-08-19T13:32:26;30.90;33.40
46816;DHT22;32787;53.316;8.670;2022-08-19T13:35:11;31.90;35.10
46816;DHT22;32787;53.316;8.670;2022-08-19T13:37:37;32.40;32.60
46816;DHT22;32787;53.316;8.670;2022-08-19T13:40:15;32.30;33.00
46816;DHT22;32787;53.316;8.670;2022-08-19T13:42:47;32.10;32.70
46816;DHT22;32787;53.316;8.670;2022-08-19T13:45:15;31.70;33.90
46816;DHT22;32787;53.316;8.670;2022-08-19T13:47:42;32.30;34.00
46816;DHT22;32787;53.316;8.670;2022-08-19T13:50:11;32.80;35.60
46816;DHT22;32787;53.316;8.670;2022-08-19T13:52:38;32.60;33.50
46816;DHT22;32787;53.316;8.670;2022-08-19T13:55:04;32.00;35.50
46816;DHT22;32787;53.316;8.670;2022-08-19T13:57:30;32.20;34.80
46816;DHT22;32787;53.316;8.670;2022-08-19T13:59:57;32.50;33.40
46816;DHT22;32787;53.316;8.670;2022-08-19T14:02:24;31.70;34.10
46816;DHT22;32787;53.316;8.670;2022-08-19T14:04:49;31.60;34.00
46816;DHT22;32787;53.316;8.670;2022-08-19T14:07:15;31.80;33.70
46816;DHT22;32787;53.316;8.670;2022-08-19T14:09:41;33.20;33.00
46816;DHT22;32787;53.316;8.670;2022-08-19T14:12:07;33.40;32.40
46816;DHT22;32787;53.316;8.670;2022-08-19T14:14:36;33.60;33.10
46816;DHT22;32787;53.316;8.670;2022-08-19T14:17:06;33.80;32.10
46816;DHT22;32787;53.316;8.670;2022-08-19T14:19:31;34.40;32.10
46816;DHT22;32787;53.316;8.670;2022-08-19T14:21:57;34.70;30.70
46816;DHT22;32787;53.316;8.670;2022-08-19T14:24:23;34.80;31.10
46816;DHT22;32787;53.316;8.670;2022-08-19T14:26:48;35.00;31.00
46816;DHT22;32787;53.316;8.670;2022-08-19T14:29:14;35.10;30.90
46816;DHT22;32787;53.316;8.670;2022-08-19T14:31:39;34.20;30.90
46816;DHT22;32787;53.316;8.670;2022-08-19T14:34:07;33.90;31.60
46816;DHT22;32787;53.316;8.670;2022-08-19T14:36:33;34.00;31.40
46816;DHT22;32787;53.316;8.670;2022-08-19T14:39:00;32.90;32.80
46816;DHT22;32787;53.316;8.670;2022-08-19T14:41:26;33.60;33.40
46816;DHT22;32787;53.316;8.670;2022-08-19T14:43:53;33.60;32.20
46816;DHT22;32787;53.316;8.670;2022-08-19T14:46:21;33.70;33.30
46816;DHT22;32787;53.316;8.670;2022-08-19T14:48:48;33.80;32.80
46816;DHT22;32787;53.316;8.670;2022-08-19T14:51:14;33.70;32.80
46816;DHT22;32787;53.316;8.670;2022-08-19T14:53:41;34.00;34.20
46816;DHT22;32787;53.316;8.670;2022-08-19T14:56:08;34.20;33.30
46816;DHT22;32787;53.316;8.670;2022-08-19T14:58:34;33.70;32.50
46816;DHT22;32787;53.316;8.670;2022-08-19T15:01:00;33.10;33.60
46816;DHT22;32787;53.316;8.670;2022-08-19T15:03:27;32.80;34.50
46816;DHT22;32787;53.316;8.670;2022-08-19T15:05:53;32.60;35.30
46816;DHT22;32787;53.316;8.670;2022-08-19T15:08:18;33.80;34.00
46816;DHT22;32787;53.316;8.670;2022-08-19T15:10:44;33.90;34.20
46816;DHT22;32787;53.316;8.670;2022-08-19T15:13:13;34.60;32.40
46816;DHT22;32787;53.316;8.670;2022-08-19T15:15:38;33.60;33.10
46816;DHT22;32787;53.316;8.670;2022-08-19T15:18:04;32.60;34.40
46816;DHT22;32787;53.316;8.670;2022-08-19T15:20:30;32.70;34.90
46816;DHT22;32787;53.316;8.670;2022-08-19T15:22:57;33.40;35.00
46816;DHT22;32787;53.316;8.670;2022-08-19T15:25:24;33.60;34.20
46816;DHT22;32787;53.316;8.670;2022-08-19T15:27:49;33.00;34.90
46816;DHT22;32787;53.316;8.670;2022-08-19T15:30:24;32.70;34.50
46816;DHT22;32787;53.316;8.670;2022-08-19T15:32:51;32.70;34.40
46816;DHT22;32787;53.316;8.670;2022-08-19T15:35:44;32.30;35.00
46816;DHT22;32787;53.316;8.670;2022-08-19T15:38:10;33.70;33.00
46816;DHT22;32787;53.316;8.670;2022-08-19T15:40:49;33.50;32.40
46816;DHT22;32787;53.316;8.670;2022-08-19T15:43:46;33.70;32.50
46816;DHT22;32787;53.316;8.670;2022-08-19T15:46:16;34.40;31.30
46816;DHT22;32787;53.316;8.670;2022-08-19T15:48:43;34.30;30.40